sensor_id;sensor_type;location;lat;lon;timestamp;temperature;humidity
41294;DHT22;27037;52.010;4.446;2023-04-24T00:02:21;10.30;99.90
41294;DHT22;27037;52.010;4.446;2023-04-24T00:04:47;10.30;99.90
41294;DHT22;27037;52.010;4.446;2023-04-24T00:07:14;10.30;99.90
41294;DHT22;27037;52.010;4.446;2023-04-24T00:09:43;10.30;99.90
41294;DHT22;27037;52.010;4.446;2023-04-24T00:12:09;10.30;99.90
41294;DHT22;27037;52.010;4.446;2023-04-24T00:14:35;10.30;99.90
41294;DHT22;27037;52.010;4.446;2023-04-24T00:17:01;10.40;99.90
41294;DHT22;27037;52.010;4.446;2023-04-24T00:19:28;10.40;99.90
41294;DHT22;27037;52.010;4.446;2023-04-24T00:21:54;10.30;99.90
41294;DHT22;27037;52.010;4.446;2023-04-24T00:24:20;10.40;99.90
41294;DHT22;27037;52.010;4.446;2023-04-24T00:26:46;10.30;99.90
41294;DHT22;27037;52.010;4.446;2023-04-24T00:29:12;10.30;99.90
41294;DHT22;27037;52.010;4.446;2023-04-24T00:31:37;10.30;99.90
41294;DHT22;27037;52.010;4.446;2023-04-24T00:34:03;10.30;99.90
41294;DHT22;27037;52.010;4.446;2023-04-24T00:36:30;10.30;99.90
41294;DHT22;27037;52.010;4.446;2023-04-24T00:38:57;10.30;99.90
41294;DHT22;27037;52.010;4.446;2023-04-24T00:41:23;10.30;99.90
41294;DHT22;27037;52.010;4.446;2023-04-24T00:43:49;10.30;99.90
41294;DHT22;27037;52.010;4.446;2023-04-24T00:46:16;10.30;99.90
41294;DHT22;27037;52.010;4.446;2023-04-24T00:48:42;10.30;99.90
41294;DHT22;27037;52.010;4.446;2023-04-24T00:51:08;10.30;99.90
41294;DHT22;27037;52.010;4.446;2023-04-24T00:56:09;10.30;99.90
41294;DHT22;27037;52.010;4.446;2023-04-24T00:58:35;10.20;99.90
41294;DHT22;27037;52.010;4.446;2023-04-24T01:01:01;10.20;99.90
41294;DHT22;27037;52.010;4.446;2023-04-24T01:03:29;10.20;99.90
41294;DHT22;27037;52.010;4.446;2023-04-24T01:05:58;10.20;99.90
41294;DHT22;27037;52.010;4.446;2023-04-24T01:08:24;10.20;99.90
41294;DHT22;27037;52.010;4.446;2023-04-24T01:10:52;10.20;99.90
41294;DHT22;27037;52.010;4.446;2023-04-24T01:13:21;10.20;99.90
41294;DHT22;27037;52.010;4.446;2023-04-24T01:15:47;10.20;99.90
41294;DHT22;27037;52.010;4.446;2023-04-24T01:18:14;10.10;99.90
41294;DHT22;27037;52.010;4.446;2023-04-24T01:20:41;10.10;99.90
41294;DHT22;27037;52.010;4.446;2023-04-24T01:23:08;10.10;99.90
41294;DHT22;27037;52.010;4.446;2023-04-24T01:25:34;10.10;99.90
41294;DHT22;27037;52.010;4.446;2023-04-24T01:28:00;10.10;99.90
41294;DHT22;27037;52.010;4.446;2023-04-24T01:30:26;10.10;99.90
41294;DHT22;27037;52.010;4.446;2023-04-24T01:32:52;10.10;99.90
41294;DHT22;27037;52.010;4.446;2023-04-24T01:35:19;10.10;99.90
41294;DHT22;27037;52.010;4.446;2023-04-24T01:37:45;10.10;99.90
41294;DHT22;27037;52.010;4.446;2023-04-24T01:40:11;10.10;99.90
41294;DHT22;27037;52.010;4.446;2023-04-24T01:42:36;10.10;99.90
41294;DHT22;27037;52.010;4.446;2023-04-24T01:45:04;10.00;99.90
41294;DHT22;27037;52.010;4.446;2023-04-24T01:47:31;10.00;99.90
41294;DHT22;27037;52.010;4.446;2023-04-24T01:49:57;10.10;99.90
41294;DHT22;27037;52.010;4.446;2023-04-24T01:52:23;10.00;99.90
41294;DHT22;27037;52.010;4.446;2023-04-24T01:54:49;10.00;99.90
41294;DHT22;27037;52.010;4.446;2023-04-24T01:57:16;10.00;99.90
41294;DHT22;27037;52.010;4.446;2023-04-24T01:59:41;10.00;99.90
41294;DHT22;27037;52.010;4.446;2023-04-24T02:02:07;10.10;99.90
41294;DHT22;27037;52.010;4.446;2023-04-24T02:04:33;10.10;99.90
41294;DHT22;27037;52.010;4.446;2023-04-24T02:06:59;10.10;99.90
41294;DHT22;27037;52.010;4.446;2023-04-24T02:09:24;10.10;99.90
41294;DHT22;27037;52.010;4.446;2023-04-24T02:11:50;10.10;99.90
41294;DHT22;27037;52.010;4.446;2023-04-24T02:14:16;10.10;99.90
41294;DHT22;27037;52.010;4.446;2023-04-24T02:16:41;10.10;99.90
41294;DHT22;27037;52.010;4.446;2023-04-24T02:19:07;10.10;99.90
41294;DHT22;27037;52.010;4.446;2023-04-24T02:21:33;10.10;99.90
41294;DHT22;27037;52.010;4.446;2023-04-24T02:23:59;10.10;99.90
41294;DHT22;27037;52.010;4.446;2023-04-24T02:26:25;10.00;99.90
41294;DHT22;27037;52.010;4.446;2023-04-24T02:28:50;10.10;99.90
41294;DHT22;27037;52.010;4.446;2023-04-24T02:31:16;10.10;99.90
41294;DHT22;27037;52.010;4.446;2023-04-24T02:33:42;10.10;99.90
41294;DHT22;27037;52.010;4.446;2023-04-24T02:36:07;10.00;99.90
41294;DHT22;27037;52.010;4.446;2023-04-24T02:38:33;10.00;99.90
41294;DHT22;27037;52.010;4.446;2023-04-24T02:40:58;9.90;99.90
41294;DHT22;27037;52.010;4.446;2023-04-24T02:43:26;9.90;99.90
41294;DHT22;27037;52.010;4.446;2023-04-24T02:45:51;9.90;99.90
41294;DHT22;27037;52.010;4.446;2023-04-24T02:48:17;9.90;99.90
41294;DHT22;27037;52.010;4.446;2023-04-24T02:50:42;9.90;99.90
41294;DHT22;27037;52.010;4.446;2023-04-24T02:53:08;9.80;99.90
41294;DHT22;27037;52.010;4.446;2023-04-24T02:55:33;9.80;99.90
41294;DHT22;27037;52.010;4.446;2023-04-24T02:57:59;9.70;99.90
41294;DHT22;27037;52.010;4.446;2023-04-24T03:00:25;9.70;99.90
41294;DHT22;27037;52.010;4.446;2023-04-24T03:02:51;9.70;99.90
41294;DHT22;27037;52.010;4.446;2023-04-24T03:05:16;9.70;99.90
41294;DHT22;27037;52.010;4.446;2023-04-24T03:07:42;9.70;99.90
41294;DHT22;27037;52.010;4.446;2023-04-24T03:10:08;9.70;99.90
41294;DHT22;27037;52.010;4.446;2023-04-24T03:12:34;9.70;99.90
41294;DHT22;27037;52.010;4.446;2023-04-24T03:14:59;9.70;99.90
41294;DHT22;27037;52.010;4.446;2023-04-24T03:17:25;9.70;99.90
41294;DHT22;27037;52.010;4.446;2023-04-24T03:19:50;9.70;99.90
41294;DHT22;27037;52.010;4.446;2023-04-24T03:22:16;9.70;99.90
41294;DHT22;27037;52.010;4.446;2023-04-24T03:24:42;9.70;99.90
41294;DHT22;27037;52.010;4.446;2023-04-24T03:27:07;9.80;99.90
41294;DHT22;27037;52.010;4.446;2023-04-24T03:29:33;9.70;99.90
41294;DHT22;27037;52.010;4.446;2023-04-24T03:31:58;9.80;99.90
41294;DHT22;27037;52.010;4.446;2023-04-24T03:34:24;9.80;99.90
41294;DHT22;27037;52.010;4.446;2023-04-24T03:36:50;9.80;99.90
41294;DHT22;27037;52.010;4.446;2023-04-24T03:39:16;9.70;99.90
41294;DHT22;27037;52.010;4.446;2023-04-24T03:41:41;9.70;99.90
41294;DHT22;27037;52.010;4.446;2023-04-24T03:44:07;9.80;99.90
41294;DHT22;27037;52.010;4.446;2023-04-24T03:46:32;9.80;99.90
41294;DHT22;27037;52.010;4.446;2023-04-24T03:48:58;9.80;99.90
41294;DHT22;27037;52.010;4.446;2023-04-24T03:51:24;9.80;99.90
41294;DHT22;27037;52.010;4.446;2023-04-24T03:53:49;9.80;99.90
41294;DHT22;27037;52.010;4.446;2023-04-24T03:56:15;9.80;99.90
41294;DHT22;27037;52.010;4.446;2023-04-24T03:58:41;9.80;99.90
41294;DHT22;27037;52.010;4.446;2023-04-24T04:01:06;9.80;99.90
41294;DHT22;27037;52.010;4.446;2023-04-24T04:03:32;9.90;99.90
41294;DHT22;27037;52.010;4.446;2023-04-24T04:05:58;9.90;99.90
41294;DHT22;27037;52.010;4.446;2023-04-24T04:08:24;9.90;99.90
41294;DHT22;27037;52.010;4.446;2023-04-24T04:10:49;9.90;99.90
41294;DHT22;27037;52.010;4.446;2023-04-24T04:13:15;9.90;99.90
41294;DHT22;27037;52.010;4.446;2023-04-24T04:15:41;9.80;99.90
41294;DHT22;27037;52.010;4.446;2023-04-24T04:18:06;9.80;99.90
41294;DHT22;27037;52.010;4.446;2023-04-24T04:20:32;9.80;99.90
41294;DHT22;27037;52.010;4.446;2023-04-24T04:22:57;9.80;99.90
41294;DHT22;27037;52.010;4.446;2023-04-24T04:25:23;9.80;99.90
41294;DHT22;27037;52.010;4.446;2023-04-24T04:27:49;9.80;99.90
41294;DHT22;27037;52.010;4.446;2023-04-24T04:30:16;9.80;99.90
41294;DHT22;27037;52.010;4.446;2023-04-24T04:32:42;9.80;99.90
41294;DHT22;27037;52.010;4.446;2023-04-24T04:35:07;9.70;99.90
41294;DHT22;27037;52.010;4.446;2023-04-24T04:37:33;9.70;99.90
41294;DHT22;27037;52.010;4.446;2023-04-24T04:39:59;9.70;99.90
41294;DHT22;27037;52.010;4.446;2023-04-24T04:42:28;9.70;99.90
41294;DHT22;27037;52.010;4.446;2023-04-24T04:44:54;9.70;99.90
41294;DHT22;27037;52.010;4.446;2023-04-24T04:47:21;9.60;99.90
41294;DHT22;27037;52.010;4.446;2023-04-24T04:49:50;9.60;99.90
41294;DHT22;27037;52.010;4.446;2023-04-24T04:52:19;9.50;99.90
41294;DHT22;27037;52.010;4.446;2023-04-24T04:54:45;9.50;99.90
41294;DHT22;27037;52.010;4.446;2023-04-24T04:57:11;9.50;99.90
41294;DHT22;27037;52.010;4.446;2023-04-24T04:59:37;9.50;99.90
41294;DHT22;27037;52.010;4.446;2023-04-24T05:02:03;9.50;99.90
41294;DHT22;27037;52.010;4.446;2023-04-24T05:04:29;9.40;99.90
41294;DHT22;27037;52.010;4.446;2023-04-24T05:06:55;9.40;99.90
41294;DHT22;27037;52.010;4.446;2023-04-24T05:09:21;9.30;99.90
41294;DHT22;27037;52.010;4.446;2023-04-24T05:11:47;9.30;99.90
41294;DHT22;27037;52.010;4.446;2023-04-24T05:14:12;9.20;99.90
41294;DHT22;27037;52.010;4.446;2023-04-24T05:16:38;9.30;99.90
41294;DHT22;27037;52.010;4.446;2023-04-24T05:19:05;9.30;99.90
41294;DHT22;27037;52.010;4.446;2023-04-24T05:21:31;9.30;99.90
41294;DHT22;27037;52.010;4.446;2023-04-24T05:23:56;9.20;99.90
41294;DHT22;27037;52.010;4.446;2023-04-24T05:26:22;9.20;99.90
41294;DHT22;27037;52.010;4.446;2023-04-24T05:28:48;9.20;99.90
41294;DHT22;27037;52.010;4.446;2023-04-24T05:31:13;9.20;99.90
41294;DHT22;27037;52.010;4.446;2023-04-24T05:33:39;9.10;99.90
41294;DHT22;27037;52.010;4.446;2023-04-24T05:36:06;9.10;99.90
41294;DHT22;27037;52.010;4.446;2023-04-24T05:38:31;9.10;99.90
41294;DHT22;27037;52.010;4.446;2023-04-24T05:40:57;9.10;99.90
41294;DHT22;27037;52.010;4.446;2023-04-24T05:43:23;9.10;99.90
41294;DHT22;27037;52.010;4.446;2023-04-24T05:45:48;9.10;99.90
41294;DHT22;27037;52.010;4.446;2023-04-24T05:48:14;9.10;99.90
41294;DHT22;27037;52.010;4.446;2023-04-24T05:50:40;9.10;99.90
41294;DHT22;27037;52.010;4.446;2023-04-24T05:53:06;9.10;99.90
41294;DHT22;27037;52.010;4.446;2023-04-24T05:55:32;9.10;99.90
41294;DHT22;27037;52.010;4.446;2023-04-24T05:57:58;9.10;99.90
41294;DHT22;27037;52.010;4.446;2023-04-24T06:00:25;9.10;99.90
41294;DHT22;27037;52.010;4.446;2023-04-24T06:02:51;9.10;99.90
41294;DHT22;27037;52.010;4.446;2023-04-24T06:05:18;9.10;99.90
41294;DHT22;27037;52.010;4.446;2023-04-24T06:07:44;9.10;99.90
41294;DHT22;27037;52.010;4.446;2023-04-24T06:10:10;9.10;99.90
41294;DHT22;27037;52.010;4.446;2023-04-24T06:12:35;9.10;99.90
41294;DHT22;27037;52.010;4.446;2023-04-24T06:15:02;9.10;99.90
41294;DHT22;27037;52.010;4.446;2023-04-24T06:17:27;9.10;99.90
41294;DHT22;27037;52.010;4.446;2023-04-24T06:19:53;9.10;99.90
41294;DHT22;27037;52.010;4.446;2023-04-24T06:22:19;9.10;99.90
41294;DHT22;27037;52.010;4.446;2023-04-24T06:24:44;9.10;99.90
41294;DHT22;27037;52.010;4.446;2023-04-24T06:27:10;9.10;99.90
41294;DHT22;27037;52.010;4.446;2023-04-24T06:29:36;9.10;99.90
41294;DHT22;27037;52.010;4.446;2023-04-24T06:32:02;9.10;99.90
41294;DHT22;27037;52.010;4.446;2023-04-24T06:34:27;9.10;99.90
41294;DHT22;27037;52.010;4.446;2023-04-24T06:36:54;9.10;99.90
41294;DHT22;27037;52.010;4.446;2023-04-24T06:39:20;9.10;99.90
41294;DHT22;27037;52.010;4.446;2023-04-24T06:41:45;9.10;99.90
41294;DHT22;27037;52.010;4.446;2023-04-24T06:44:11;9.10;99.90
41294;DHT22;27037;52.010;4.446;2023-04-24T06:46:37;9.10;99.90
41294;DHT22;27037;52.010;4.446;2023-04-24T06:49:02;9.10;99.90
41294;DHT22;27037;52.010;4.446;2023-04-24T06:51:28;9.10;99.90
41294;DHT22;27037;52.010;4.446;2023-04-24T06:53:54;9.10;99.90
41294;DHT22;27037;52.010;4.446;2023-04-24T06:56:21;9.20;99.90
41294;DHT22;27037;52.010;4.446;2023-04-24T06:58:48;9.20;99.90
41294;DHT22;27037;52.010;4.446;2023-04-24T07:01:13;9.10;99.90
41294;DHT22;27037;52.010;4.446;2023-04-24T07:03:39;9.10;99.90
41294;DHT22;27037;52.010;4.446;2023-04-24T07:06:05;9.10;99.90
41294;DHT22;27037;52.010;4.446;2023-04-24T07:08:31;9.10;99.90
41294;DHT22;27037;52.010;4.446;2023-04-24T07:10:58;9.00;99.90
41294;DHT22;27037;52.010;4.446;2023-04-24T07:13:24;9.00;99.90
41294;DHT22;27037;52.010;4.446;2023-04-24T07:15:53;9.00;99.90
41294;DHT22;27037;52.010;4.446;2023-04-24T07:18:20;9.10;99.90
41294;DHT22;27037;52.010;4.446;2023-04-24T07:20:46;9.10;99.90
41294;DHT22;27037;52.010;4.446;2023-04-24T07:23:11;9.10;99.90
41294;DHT22;27037;52.010;4.446;2023-04-24T07:25:37;9.10;99.90
41294;DHT22;27037;52.010;4.446;2023-04-24T07:28:04;9.20;99.90
41294;DHT22;27037;52.010;4.446;2023-04-24T07:30:30;9.20;99.90
41294;DHT22;27037;52.010;4.446;2023-04-24T07:32:58;9.10;99.90
41294;DHT22;27037;52.010;4.446;2023-04-24T07:35:24;9.10;99.90
41294;DHT22;27037;52.010;4.446;2023-04-24T07:37:52;9.10;99.90
41294;DHT22;27037;52.010;4.446;2023-04-24T07:40:18;9.20;99.90
41294;DHT22;27037;52.010;4.446;2023-04-24T07:42:44;9.20;99.90
41294;DHT22;27037;52.010;4.446;2023-04-24T07:45:09;9.20;99.90
41294;DHT22;27037;52.010;4.446;2023-04-24T07:47:35;9.20;99.90
41294;DHT22;27037;52.010;4.446;2023-04-24T07:50:02;9.20;99.90
41294;DHT22;27037;52.010;4.446;2023-04-24T07:52:28;9.20;99.90
41294;DHT22;27037;52.010;4.446;2023-04-24T07:54:54;9.20;99.90
41294;DHT22;27037;52.010;4.446;2023-04-24T07:57:24;9.20;99.90
41294;DHT22;27037;52.010;4.446;2023-04-24T07:59:52;9.20;99.90
41294;DHT22;27037;52.010;4.446;2023-04-24T08:02:18;9.20;99.90
41294;DHT22;27037;52.010;4.446;2023-04-24T08:04:43;9.20;99.90
41294;DHT22;27037;52.010;4.446;2023-04-24T08:07:09;9.20;99.90
41294;DHT22;27037;52.010;4.446;2023-04-24T08:09:34;9.20;99.90
41294;DHT22;27037;52.010;4.446;2023-04-24T08:12:00;9.20;99.90
41294;DHT22;27037;52.010;4.446;2023-04-24T08:14:26;9.20;99.90
41294;DHT22;27037;52.010;4.446;2023-04-24T08:16:54;9.20;99.90
41294;DHT22;27037;52.010;4.446;2023-04-24T08:19:21;9.20;99.90
41294;DHT22;27037;52.010;4.446;2023-04-24T08:21:47;9.20;99.90
41294;DHT22;27037;52.010;4.446;2023-04-24T08:24:12;9.20;99.90
41294;DHT22;27037;52.010;4.446;2023-04-24T08:26:38;9.20;99.90
41294;DHT22;27037;52.010;4.446;2023-04-24T08:29:04;9.20;99.90
41294;DHT22;27037;52.010;4.446;2023-04-24T08:31:30;9.30;99.90
41294;DHT22;27037;52.010;4.446;2023-04-24T08:33:55;9.30;99.90
41294;DHT22;27037;52.010;4.446;2023-04-24T08:36:21;9.30;99.90
41294;DHT22;27037;52.010;4.446;2023-04-24T08:38:47;9.30;99.90
41294;DHT22;27037;52.010;4.446;2023-04-24T08:41:14;9.20;99.90
41294;DHT22;27037;52.010;4.446;2023-04-24T08:43:41;9.30;99.90
41294;DHT22;27037;52.010;4.446;2023-04-24T08:46:07;9.20;99.90
41294;DHT22;27037;52.010;4.446;2023-04-24T08:48:34;9.20;99.90
41294;DHT22;27037;52.010;4.446;2023-04-24T08:50:59;9.10;99.90
41294;DHT22;27037;52.010;4.446;2023-04-24T08:53:27;9.20;99.90
41294;DHT22;27037;52.010;4.446;2023-04-24T08:55:54;9.20;99.90
41294;DHT22;27037;52.010;4.446;2023-04-24T08:58:21;9.30;99.90
41294;DHT22;27037;52.010;4.446;2023-04-24T09:00:48;9.30;99.90
41294;DHT22;27037;52.010;4.446;2023-04-24T09:03:16;9.30;99.90
41294;DHT22;27037;52.010;4.446;2023-04-24T09:05:46;9.30;99.90
41294;DHT22;27037;52.010;4.446;2023-04-24T09:08:13;9.30;99.90
41294;DHT22;27037;52.010;4.446;2023-04-24T09:10:41;9.30;99.90
41294;DHT22;27037;52.010;4.446;2023-04-24T09:13:07;9.30;99.90
41294;DHT22;27037;52.010;4.446;2023-04-24T09:15:38;9.30;99.90
41294;DHT22;27037;52.010;4.446;2023-04-24T09:18:04;9.30;99.90
41294;DHT22;27037;52.010;4.446;2023-04-24T09:20:30;9.30;99.90
41294;DHT22;27037;52.010;4.446;2023-04-24T09:22:59;9.30;99.90
41294;DHT22;27037;52.010;4.446;2023-04-24T09:25:34;9.40;99.90
41294;DHT22;27037;52.010;4.446;2023-04-24T09:28:04;9.40;99.90
41294;DHT22;27037;52.010;4.446;2023-04-24T09:30:32;9.50;99.90
41294;DHT22;27037;52.010;4.446;2023-04-24T09:33:12;9.50;99.90
41294;DHT22;27037;52.010;4.446;2023-04-24T09:35:41;9.70;99.90
41294;DHT22;27037;52.010;4.446;2023-04-24T09:38:07;9.80;99.90
41294;DHT22;27037;52.010;4.446;2023-04-24T09:40:34;9.90;99.90
41294;DHT22;27037;52.010;4.446;2023-04-24T09:43:01;9.90;99.90
41294;DHT22;27037;52.010;4.446;2023-04-24T09:45:34;9.90;99.90
41294;DHT22;27037;52.010;4.446;2023-04-24T09:48:01;9.90;99.90
41294;DHT22;27037;52.010;4.446;2023-04-24T09:50:29;10.00;99.90
41294;DHT22;27037;52.010;4.446;2023-04-24T09:52:59;10.00;99.90
41294;DHT22;27037;52.010;4.446;2023-04-24T09:55:26;10.00;99.90
41294;DHT22;27037;52.010;4.446;2023-04-24T09:57:57;10.10;99.90
41294;DHT22;27037;52.010;4.446;2023-04-24T10:00:28;10.00;99.90
41294;DHT22;27037;52.010;4.446;2023-04-24T10:03:04;9.90;99.90
41294;DHT22;27037;52.010;4.446;2023-04-24T10:05:37;9.90;99.90
41294;DHT22;27037;52.010;4.446;2023-04-24T10:08:06;9.80;99.90
41294;DHT22;27037;52.010;4.446;2023-04-24T10:10:33;9.80;99.90
41294;DHT22;27037;52.010;4.446;2023-04-24T10:13:00;9.90;99.90
41294;DHT22;27037;52.010;4.446;2023-04-24T10:15:27;9.90;99.90
41294;DHT22;27037;52.010;4.446;2023-04-24T10:17:53;9.90;99.90
41294;DHT22;27037;52.010;4.446;2023-04-24T10:20:23;9.90;99.90
41294;DHT22;27037;52.010;4.446;2023-04-24T10:22:51;9.90;99.90
41294;DHT22;27037;52.010;4.446;2023-04-24T10:25:23;9.90;99.90
41294;DHT22;27037;52.010;4.446;2023-04-24T10:27:51;9.80;99.90
41294;DHT22;27037;52.010;4.446;2023-04-24T10:30:18;9.70;99.90
41294;DHT22;27037;52.010;4.446;2023-04-24T10:32:44;9.80;99.90
41294;DHT22;27037;52.010;4.446;2023-04-24T10:35:13;9.80;99.90
41294;DHT22;27037;52.010;4.446;2023-04-24T10:37:48;9.90;99.90
41294;DHT22;27037;52.010;4.446;2023-04-24T10:40:18;9.90;99.90
41294;DHT22;27037;52.010;4.446;2023-04-24T10:42:49;10.00;99.90
41294;DHT22;27037;52.010;4.446;2023-04-24T10:45:21;10.00;99.90
41294;DHT22;27037;52.010;4.446;2023-04-24T10:48:01;10.10;99.90
41294;DHT22;27037;52.010;4.446;2023-04-24T10:50:28;10.30;99.90
41294;DHT22;27037;52.010;4.446;2023-04-24T10:53:05;10.40;99.90
41294;DHT22;27037;52.010;4.446;2023-04-24T10:55:52;10.50;99.90
41294;DHT22;27037;52.010;4.446;2023-04-24T10:58:23;10.50;99.90
41294;DHT22;27037;52.010;4.446;2023-04-24T11:00:59;10.50;99.90
41294;DHT22;27037;52.010;4.446;2023-04-24T11:03:30;10.40;99.90
41294;DHT22;27037;52.010;4.446;2023-04-24T11:06:04;10.40;99.90
41294;DHT22;27037;52.010;4.446;2023-04-24T11:08:38;10.40;99.90
41294;DHT22;27037;52.010;4.446;2023-04-24T11:11:13;10.40;99.90
41294;DHT22;27037;52.010;4.446;2023-04-24T11:18:52;10.80;99.90
41294;DHT22;27037;52.010;4.446;2023-04-24T11:21:22;10.90;99.90
41294;DHT22;27037;52.010;4.446;2023-04-24T11:23:48;11.10;99.90
41294;DHT22;27037;52.010;4.446;2023-04-24T11:26:19;11.20;99.90
41294;DHT22;27037;52.010;4.446;2023-04-24T11:28:47;11.40;99.90
41294;DHT22;27037;52.010;4.446;2023-04-24T11:31:39;11.50;99.90
41294;DHT22;27037;52.010;4.446;2023-04-24T11:34:10;11.50;99.90
41294;DHT22;27037;52.010;4.446;2023-04-24T11:36:36;11.40;99.90
41294;DHT22;27037;52.010;4.446;2023-04-24T11:39:02;11.40;99.90
41294;DHT22;27037;52.010;4.446;2023-04-24T11:41:28;11.40;99.90
41294;DHT22;27037;52.010;4.446;2023-04-24T11:43:54;11.50;99.90
41294;DHT22;27037;52.010;4.446;2023-04-24T11:46:21;11.50;99.90
41294;DHT22;27037;52.010;4.446;2023-04-24T11:48:47;11.60;99.90
41294;DHT22;27037;52.010;4.446;2023-04-24T11:51:13;11.60;99.90
41294;DHT22;27037;52.010;4.446;2023-04-24T11:53:39;11.60;99.90
41294;DHT22;27037;52.010;4.446;2023-04-24T11:56:05;11.60;99.90
41294;DHT22;27037;52.010;4.446;2023-04-24T11:58:38;11.60;99.90
41294;DHT22;27037;52.010;4.446;2023-04-24T12:01:04;11.60;99.90
41294;DHT22;27037;52.010;4.446;2023-04-24T12:03:30;11.60;99.90
41294;DHT22;27037;52.010;4.446;2023-04-24T12:06:09;11.60;99.90
41294;DHT22;27037;52.010;4.446;2023-04-24T12:08:35;11.50;99.90
41294;DHT22;27037;52.010;4.446;2023-04-24T12:11:03;11.50;99.90
41294;DHT22;27037;52.010;4.446;2023-04-24T12:13:29;11.30;99.90
41294;DHT22;27037;52.010;4.446;2023-04-24T12:15:56;11.00;99.90
41294;DHT22;27037;52.010;4.446;2023-04-24T12:18:23;10.70;99.90
41294;DHT22;27037;52.010;4.446;2023-04-24T12:20:49;10.40;99.90
41294;DHT22;27037;52.010;4.446;2023-04-24T12:23:15;10.30;99.90
41294;DHT22;27037;52.010;4.446;2023-04-24T12:25:41;10.20;99.90
41294;DHT22;27037;52.010;4.446;2023-04-24T12:28:10;10.10;99.90
41294;DHT22;27037;52.010;4.446;2023-04-24T12:30:42;10.20;99.90
41294;DHT22;27037;52.010;4.446;2023-04-24T12:33:10;10.20;99.90
41294;DHT22;27037;52.010;4.446;2023-04-24T12:35:36;10.30;99.90
41294;DHT22;27037;52.010;4.446;2023-04-24T12:38:09;10.40;99.90
41294;DHT22;27037;52.010;4.446;2023-04-24T12:40:35;10.50;99.90
41294;DHT22;27037;52.010;4.446;2023-04-24T12:43:01;10.50;99.90
41294;DHT22;27037;52.010;4.446;2023-04-24T12:45:26;10.60;99.90
41294;DHT22;27037;52.010;4.446;2023-04-24T12:47:53;10.70;99.90
41294;DHT22;27037;52.010;4.446;2023-04-24T12:50:19;10.80;99.90
41294;DHT22;27037;52.010;4.446;2023-04-24T12:52:45;10.80;99.90
41294;DHT22;27037;52.010;4.446;2023-04-24T12:55:10;10.90;99.90
41294;DHT22;27037;52.010;4.446;2023-04-24T12:57:39;11.00;99.90
41294;DHT22;27037;52.010;4.446;2023-04-24T13:00:07;11.00;99.90
41294;DHT22;27037;52.010;4.446;2023-04-24T13:02:33;10.90;99.90
41294;DHT22;27037;52.010;4.446;2023-04-24T13:05:00;10.80;99.90
41294;DHT22;27037;52.010;4.446;2023-04-24T13:07:26;10.80;99.90
41294;DHT22;27037;52.010;4.446;2023-04-24T13:09:53;10.80;99.90
41294;DHT22;27037;52.010;4.446;2023-04-24T13:12:19;10.80;99.90
41294;DHT22;27037;52.010;4.446;2023-04-24T13:14:45;10.80;99.90
41294;DHT22;27037;52.010;4.446;2023-04-24T13:17:11;10.80;99.90
41294;DHT22;27037;52.010;4.446;2023-04-24T13:19:40;10.70;99.90
41294;DHT22;27037;52.010;4.446;2023-04-24T13:22:06;10.70;99.90
41294;DHT22;27037;52.010;4.446;2023-04-24T13:24:32;10.80;99.90
41294;DHT22;27037;52.010;4.446;2023-04-24T13:26:58;10.80;99.90
41294;DHT22;27037;52.010;4.446;2023-04-24T13:29:24;10.90;99.90
41294;DHT22;27037;52.010;4.446;2023-04-24T13:31:50;11.00;99.90
41294;DHT22;27037;52.010;4.446;2023-04-24T13:34:17;11.20;99.90
41294;DHT22;27037;52.010;4.446;2023-04-24T13:36:43;11.20;99.90
41294;DHT22;27037;52.010;4.446;2023-04-24T13:39:09;11.30;99.90
41294;DHT22;27037;52.010;4.446;2023-04-24T13:41:37;11.30;99.90
41294;DHT22;27037;52.010;4.446;2023-04-24T13:44:03;11.30;99.90
41294;DHT22;27037;52.010;4.446;2023-04-24T13:46:29;11.40;99.90
41294;DHT22;27037;52.010;4.446;2023-04-24T13:48:55;11.50;99.90
41294;DHT22;27037;52.010;4.446;2023-04-24T13:51:24;11.50;99.90
41294;DHT22;27037;52.010;4.446;2023-04-24T13:53:52;11.50;99.90
41294;DHT22;27037;52.010;4.446;2023-04-24T13:56:18;11.60;99.90
41294;DHT22;27037;52.010;4.446;2023-04-24T13:58:43;11.70;99.90
41294;DHT22;27037;52.010;4.446;2023-04-24T14:01:09;11.80;99.90
41294;DHT22;27037;52.010;4.446;2023-04-24T14:03:37;11.90;99.90
41294;DHT22;27037;52.010;4.446;2023-04-24T14:06:02;11.80;99.90
41294;DHT22;27037;52.010;4.446;2023-04-24T14:08:28;11.80;99.90
41294;DHT22;27037;52.010;4.446;2023-04-24T14:10:54;11.70;99.90
41294;DHT22;27037;52.010;4.446;2023-04-24T14:13:20;11.60;99.90
41294;DHT22;27037;52.010;4.446;2023-04-24T14:15:46;11.30;99.90
41294;DHT22;27037;52.010;4.446;2023-04-24T14:18:11;11.10;99.90
41294;DHT22;27037;52.010;4.446;2023-04-24T14:20:37;10.90;99.90
41294;DHT22;27037;52.010;4.446;2023-04-24T14:23:03;10.80;99.90
41294;DHT22;27037;52.010;4.446;2023-04-24T14:25:29;10.80;99.90
41294;DHT22;27037;52.010;4.446;2023-04-24T14:27:55;10.80;99.90
41294;DHT22;27037;52.010;4.446;2023-04-24T14:30:21;10.80;99.90
41294;DHT22;27037;52.010;4.446;2023-04-24T14:32:46;10.80;99.90
41294;DHT22;27037;52.010;4.446;2023-04-24T14:35:12;10.80;99.90
41294;DHT22;27037;52.010;4.446;2023-04-24T14:37:38;10.90;99.90
41294;DHT22;27037;52.010;4.446;2023-04-24T14:40:07;10.90;99.90
41294;DHT22;27037;52.010;4.446;2023-04-24T14:42:33;10.90;99.90
41294;DHT22;27037;52.010;4.446;2023-04-24T14:44:59;11.00;99.90
41294;DHT22;27037;52.010;4.446;2023-04-24T14:47:25;11.00;99.90
41294;DHT22;27037;52.010;4.446;2023-04-24T14:49:51;11.00;99.90
41294;DHT22;27037;52.010;4.446;2023-04-24T14:52:16;11.10;99.90
41294;DHT22;27037;52.010;4.446;2023-04-24T14:54:42;11.10;99.90
41294;DHT22;27037;52.010;4.446;2023-04-24T14:57:08;11.10;99.90
41294;DHT22;27037;52.010;4.446;2023-04-24T14:59:34;11.10;99.90
41294;DHT22;27037;52.010;4.446;2023-04-24T15:02:00;10.90;99.90
41294;DHT22;27037;52.010;4.446;2023-04-24T15:04:27;10.90;99.90
41294;DHT22;27037;52.010;4.446;2023-04-24T15:06:53;10.70;99.90
41294;DHT22;27037;52.010;4.446;2023-04-24T15:09:23;10.70;99.90
41294;DHT22;27037;52.010;4.446;2023-04-24T15:11:49;10.70;99.90
41294;DHT22;27037;52.010;4.446;2023-04-24T15:14:15;10.70;99.90
41294;DHT22;27037;52.010;4.446;2023-04-24T15:16:41;10.70;99.90
41294;DHT22;27037;52.010;4.446;2023-04-24T15:19:07;10.70;99.90
41294;DHT22;27037;52.010;4.446;2023-04-24T15:21:33;10.70;99.90
41294;DHT22;27037;52.010;4.446;2023-04-24T15:23:58;10.60;99.90
41294;DHT22;27037;52.010;4.446;2023-04-24T15:26:24;10.60;99.90
41294;DHT22;27037;52.010;4.446;2023-04-24T15:28:51;10.60;99.90
41294;DHT22;27037;52.010;4.446;2023-04-24T15:31:17;10.60;99.90
41294;DHT22;27037;52.010;4.446;2023-04-24T15:33:43;10.80;99.90
41294;DHT22;27037;52.010;4.446;2023-04-24T15:36:09;10.80;99.90
41294;DHT22;27037;52.010;4.446;2023-04-24T15:38:35;10.90;99.90
41294;DHT22;27037;52.010;4.446;2023-04-24T15:41:01;11.00;99.90
41294;DHT22;27037;52.010;4.446;2023-04-24T15:43:26;11.00;99.90